createdAt,value
2018-06-09T00:00:23.335Z,0.00
2018-06-09T00:01:23.320Z,0.00
2018-06-09T00:02:23.307Z,0.00
2018-06-09T00:03:23.309Z,0.00
2018-06-09T00:04:23.276Z,0.00
2018-06-09T00:05:23.263Z,0.00
2018-06-09T00:06:23.249Z,0.00
2018-06-09T00:07:23.233Z,0.00
2018-06-09T00:08:23.221Z,0.00
2018-06-09T00:09:23.215Z,0.00
2018-06-09T00:10:23.189Z,0.00
2018-06-09T00:11:23.176Z,0.00
2018-06-09T00:12:23.168Z,0.00
2018-06-09T00:13:23.148Z,0.00
2018-06-09T00:14:23.142Z,0.00
2018-06-09T00:15:23.116Z,0.00
2018-06-09T00:16:23.104Z,0.00
2018-06-09T00:17:23.089Z,0.00
2018-06-09T00:18:23.073Z,0.00
2018-06-09T00:19:23.324Z,0.00
2018-06-09T00:20:23.043Z,0.00
2018-06-09T00:21:23.032Z,0.00
2018-06-09T00:22:23.016Z,0.00
2018-06-09T00:23:23.001Z,0.00
2018-06-09T00:24:22.986Z,0.00
2018-06-09T00:25:22.989Z,0.00
2018-06-09T00:26:22.957Z,0.00
2018-06-09T00:27:22.944Z,0.00
2018-06-09T00:28:22.929Z,0.00
2018-06-09T00:29:22.917Z,0.00
2018-06-09T00:30:22.914Z,0.00
2018-06-09T00:31:22.888Z,0.00
2018-06-09T00:32:22.870Z,0.00
2018-06-09T00:33:22.857Z,0.00
2018-06-09T00:34:22.841Z,0.00
2018-06-09T00:35:22.832Z,0.00
2018-06-09T00:36:22.825Z,0.00
2018-06-09T00:37:22.798Z,0.00
2018-06-09T00:38:22.781Z,0.00
2018-06-09T00:39:22.768Z,0.00
2018-06-09T00:40:22.756Z,0.00
2018-06-09T00:41:22.750Z,0.00
2018-06-09T00:42:22.724Z,0.00
2018-06-09T00:43:22.712Z,0.00
2018-06-09T00:44:22.700Z,0.00
2018-06-09T00:45:22.682Z,0.00
2018-06-09T00:46:22.946Z,0.00
2018-06-09T00:47:22.659Z,0.00
2018-06-09T00:48:22.637Z,0.00
2018-06-09T00:49:22.623Z,0.00
2018-06-09T00:50:22.612Z,0.00
2018-06-09T00:51:22.595Z,0.00
2018-06-09T00:52:22.591Z,0.00
2018-06-09T00:53:22.572Z,0.00
2018-06-09T00:54:22.549Z,0.00
2018-06-09T00:55:22.535Z,0.00
2018-06-09T00:56:22.520Z,0.00
2018-06-09T00:57:22.781Z,0.00
2018-06-09T00:58:22.499Z,0.00
2018-06-09T00:59:22.476Z,0.00
2018-06-09T01:00:22.467Z,0.00
2018-06-09T01:01:22.449Z,0.00
2018-06-09T01:02:22.433Z,0.00
2018-06-09T01:03:22.427Z,0.00
2018-06-09T01:04:22.403Z,0.00
2018-06-09T01:05:22.387Z,0.00
2018-06-09T01:06:22.373Z,0.00
2018-06-09T01:07:22.359Z,0.00
2018-06-09T01:08:22.361Z,0.00
2018-06-09T01:09:22.330Z,0.00
2018-06-09T01:10:22.319Z,0.00
2018-06-09T01:11:22.300Z,0.00
2018-06-09T01:12:22.287Z,0.00
2018-06-09T01:13:22.273Z,0.00
2018-06-09T01:14:22.273Z,0.00
2018-06-09T01:15:22.242Z,0.00
2018-06-09T01:16:22.227Z,0.00
2018-06-09T01:17:22.214Z,0.00
2018-06-09T01:18:22.209Z,0.00
2018-06-09T01:19:22.183Z,0.00
2018-06-09T01:20:22.179Z,0.00
2018-06-09T01:21:22.154Z,0.00
2018-06-09T01:22:22.138Z,0.00
2018-06-09T01:23:22.127Z,0.00
2018-06-09T01:24:22.111Z,0.00
2018-06-09T01:25:22.107Z,0.00
2018-06-09T01:26:22.081Z,0.00
2018-06-09T01:27:22.064Z,0.00
2018-06-09T01:28:22.054Z,0.00
2018-06-09T01:29:22.036Z,0.00
2018-06-09T01:30:22.031Z,0.00
2018-06-09T01:31:22.018Z,0.00
2018-06-09T01:32:21.991Z,0.00
2018-06-09T01:33:21.973Z,0.00
2018-06-09T01:34:21.959Z,0.00
2018-06-09T01:35:21.983Z,0.00
2018-06-09T01:36:21.931Z,0.00
2018-06-09T01:37:21.918Z,0.00
2018-06-09T01:38:21.901Z,0.00
2018-06-09T01:39:21.888Z,0.00
2018-06-09T01:40:21.874Z,0.00
2018-06-09T01:41:21.875Z,0.00
2018-06-09T01:42:21.847Z,0.00
2018-06-09T01:43:21.832Z,0.00
2018-06-09T01:44:21.815Z,0.00
2018-06-09T01:45:21.797Z,0.00
2018-06-09T01:46:21.782Z,0.00
2018-06-09T01:47:21.776Z,0.00
2018-06-09T01:48:21.751Z,0.00
2018-06-09T01:49:21.738Z,0.00
2018-06-09T01:50:21.723Z,0.00
2018-06-09T01:51:21.715Z,0.00
2018-06-09T01:52:21.703Z,0.00
2018-06-09T01:53:21.678Z,0.00
2018-06-09T01:54:21.664Z,0.00
2018-06-09T01:55:21.649Z,0.00
2018-06-09T01:56:21.635Z,0.00
2018-06-09T01:57:21.634Z,0.00
2018-06-09T01:58:21.603Z,0.00
2018-06-09T01:59:21.591Z,0.00
2018-06-09T02:00:21.575Z,0.00
2018-06-09T02:01:21.562Z,0.00
2018-06-09T02:02:21.543Z,0.00
2018-06-09T02:03:21.544Z,0.00
2018-06-09T02:04:21.514Z,0.00
2018-06-09T02:05:21.499Z,0.00
2018-06-09T02:06:21.485Z,0.00
2018-06-09T02:07:21.502Z,0.00
2018-06-09T02:08:21.470Z,0.00
2018-06-09T02:09:21.442Z,0.00
2018-06-09T02:10:21.424Z,0.00
2018-06-09T02:11:21.408Z,0.00
2018-06-09T02:12:21.395Z,0.00
2018-06-09T02:13:21.383Z,0.00
2018-06-09T02:14:21.375Z,0.00
2018-06-09T02:15:21.351Z,0.00
2018-06-09T02:16:21.336Z,0.00
2018-06-09T02:17:21.320Z,0.00
2018-06-09T02:18:21.306Z,0.00
2018-06-09T02:19:21.309Z,0.00
2018-06-09T02:20:21.276Z,0.00
2018-06-09T02:21:21.262Z,0.00
2018-06-09T02:22:21.246Z,0.00
2018-06-09T02:23:21.230Z,0.00
2018-06-09T02:24:21.215Z,0.00
2018-06-09T02:25:21.212Z,0.00
2018-06-09T02:26:21.190Z,0.00
2018-06-09T02:27:21.168Z,0.00
2018-06-09T02:28:21.158Z,0.00
2018-06-09T02:29:21.141Z,0.00
2018-06-09T02:30:21.137Z,0.00
2018-06-09T02:31:21.111Z,0.00
2018-06-09T02:32:21.095Z,0.00
2018-06-09T02:33:21.081Z,0.00
2018-06-09T02:34:21.069Z,0.00
2018-06-09T02:35:21.069Z,0.00
2018-06-09T02:36:21.036Z,0.00
2018-06-09T02:37:21.023Z,0.00
2018-06-09T02:38:21.006Z,0.00
2018-06-09T02:39:20.993Z,0.00
2018-06-09T02:40:20.976Z,0.00
2018-06-09T02:41:20.977Z,0.00
2018-06-09T02:42:20.946Z,0.00
2018-06-09T02:43:20.935Z,0.00
2018-06-09T02:44:20.916Z,0.00
2018-06-09T02:45:20.901Z,0.00
2018-06-09T02:46:20.884Z,0.00
2018-06-09T02:47:20.881Z,0.00
2018-06-09T02:48:20.861Z,0.00
2018-06-09T02:49:20.840Z,0.00
2018-06-09T02:50:20.829Z,0.00
2018-06-09T02:51:20.809Z,0.00
2018-06-09T02:52:20.816Z,0.00
2018-06-09T02:53:20.781Z,0.00
2018-06-09T02:54:20.764Z,0.00
2018-06-09T02:55:20.750Z,0.00
2018-06-09T02:56:20.735Z,0.00
2018-06-09T02:57:20.731Z,0.00
2018-06-09T02:58:20.711Z,0.00
2018-06-09T02:59:20.692Z,0.00
2018-06-09T03:00:20.676Z,0.00
2018-06-09T03:01:20.661Z,0.00
2018-06-09T03:02:20.919Z,0.00
2018-06-09T03:03:20.630Z,0.00
2018-06-09T03:04:20.615Z,0.00
2018-06-09T03:05:20.601Z,0.00
2018-06-09T03:06:20.586Z,0.00
2018-06-09T03:07:20.572Z,0.00
2018-06-09T03:08:20.875Z,0.00
2018-06-09T03:09:20.544Z,0.00
2018-06-09T03:10:20.525Z,0.00
2018-06-09T03:11:20.512Z,0.00
2018-06-09T03:12:20.502Z,0.00
2018-06-09T03:13:20.482Z,0.00
2018-06-09T03:14:20.477Z,0.00
2018-06-09T03:15:20.454Z,0.00
2018-06-09T03:16:20.437Z,5.63
2018-06-09T03:17:20.422Z,5.63
2018-06-09T03:18:20.405Z,5.63
2018-06-09T03:19:20.401Z,5.63
2018-06-09T03:20:20.376Z,5.63
2018-06-09T03:21:20.363Z,5.63
2018-06-09T03:22:20.346Z,5.63
2018-06-09T03:23:20.331Z,5.63
2018-06-09T03:24:20.332Z,5.63
2018-06-09T03:25:20.303Z,5.63
2018-06-09T03:26:20.286Z,5.63
2018-06-09T03:27:20.273Z,5.63
2018-06-09T03:28:20.259Z,11.25
2018-06-09T03:29:20.243Z,11.25
2018-06-09T03:30:20.243Z,11.25
2018-06-09T03:31:20.214Z,11.25
2018-06-09T03:32:20.203Z,11.25
2018-06-09T03:33:20.184Z,11.25
2018-06-09T03:34:20.171Z,16.88
2018-06-09T03:35:20.153Z,16.88
2018-06-09T03:36:20.152Z,16.88
2018-06-09T03:37:20.124Z,16.88
2018-06-09T03:38:20.110Z,16.88
2018-06-09T03:39:20.095Z,16.88
2018-06-09T03:40:20.085Z,16.88
2018-06-09T03:41:20.346Z,22.50
2018-06-09T03:42:20.054Z,22.50
2018-06-09T03:43:20.099Z,22.50
2018-06-09T03:44:20.023Z,22.50
2018-06-09T03:45:20.009Z,28.13
2018-06-09T03:46:19.991Z,28.13
2018-06-09T03:47:19.987Z,28.13
2018-06-09T03:48:19.962Z,28.13
2018-06-09T03:49:19.947Z,28.13
2018-06-09T03:50:19.932Z,33.75
2018-06-09T03:51:19.920Z,33.75
2018-06-09T03:52:19.913Z,33.75
2018-06-09T03:53:19.890Z,39.38
2018-06-09T03:54:19.874Z,39.38
2018-06-09T03:55:19.857Z,39.38
2018-06-09T03:56:19.846Z,39.38
2018-06-09T03:57:19.845Z,45.00
2018-06-09T03:58:19.812Z,45.00
2018-06-09T03:59:19.800Z,45.00
2018-06-09T04:00:19.785Z,45.00
2018-06-09T04:01:19.773Z,45.00
2018-06-09T04:02:19.755Z,45.00
2018-06-09T04:03:19.757Z,45.00
2018-06-09T04:04:19.728Z,45.00
2018-06-09T04:05:19.713Z,45.00
2018-06-09T04:06:19.696Z,45.00
2018-06-09T04:07:19.684Z,50.63
2018-06-09T04:08:19.668Z,50.63
2018-06-09T04:09:19.665Z,56.25
2018-06-09T04:10:19.640Z,56.25
2018-06-09T04:11:19.627Z,56.25
2018-06-09T04:12:19.610Z,61.88
2018-06-09T04:13:19.594Z,61.88
2018-06-09T04:14:19.593Z,61.88
2018-06-09T04:15:19.566Z,61.88
2018-06-09T04:16:19.550Z,61.88
2018-06-09T04:17:19.536Z,61.88
2018-06-09T04:18:19.535Z,61.88
2018-06-09T04:19:19.517Z,61.88
2018-06-09T04:20:19.498Z,61.88
2018-06-09T04:21:19.481Z,61.88
2018-06-09T04:22:19.462Z,61.88
2018-06-09T04:23:19.449Z,61.88
2018-06-09T04:24:19.452Z,61.88
2018-06-09T04:25:19.421Z,61.88
2018-06-09T04:26:19.409Z,61.88
2018-06-09T04:27:19.395Z,61.88
2018-06-09T04:28:19.415Z,61.88
2018-06-09T04:29:19.362Z,61.88
2018-06-09T04:30:19.370Z,61.88
2018-06-09T04:31:19.336Z,61.88
2018-06-09T04:32:19.322Z,61.88
2018-06-09T04:33:19.305Z,56.25
2018-06-09T04:34:19.290Z,61.88
2018-06-09T04:35:19.275Z,61.88
2018-06-09T04:36:19.270Z,67.50
2018-06-09T04:37:19.248Z,67.50
2018-06-09T04:38:19.232Z,73.13
2018-06-09T04:39:19.217Z,67.50
2018-06-09T04:40:19.225Z,73.13
2018-06-09T04:41:19.197Z,73.13
2018-06-09T04:42:19.174Z,73.13
2018-06-09T04:43:19.162Z,67.50
2018-06-09T04:44:19.145Z,67.50
2018-06-09T04:45:19.131Z,67.50
2018-06-09T04:46:19.132Z,67.50
2018-06-09T04:47:19.110Z,73.13
2018-06-09T04:48:19.088Z,73.13
2018-06-09T04:49:19.073Z,73.13
2018-06-09T04:50:19.057Z,78.75
2018-06-09T04:51:19.045Z,78.75
2018-06-09T04:52:19.045Z,78.75
2018-06-09T04:53:19.017Z,78.75
2018-06-09T04:54:18.999Z,84.38
2018-06-09T04:55:18.987Z,84.38
2018-06-09T04:56:18.971Z,90.00
2018-06-09T04:57:18.957Z,84.38
2018-06-09T04:58:18.951Z,84.38
2018-06-09T04:59:18.968Z,84.38
2018-06-09T05:00:18.914Z,90.00
2018-06-09T05:01:18.899Z,84.38
2018-06-09T05:02:18.884Z,78.75
2018-06-09T05:03:18.882Z,78.75
2018-06-09T05:04:18.857Z,78.75
2018-06-09T05:05:18.839Z,73.13
2018-06-09T05:06:18.826Z,73.13
2018-06-09T05:07:18.876Z,78.75
2018-06-09T05:08:18.814Z,90.00
2018-06-09T05:09:18.782Z,95.63
2018-06-09T05:10:18.766Z,101.25
2018-06-09T05:11:18.757Z,112.50
2018-06-09T05:12:18.738Z,123.75
2018-06-09T05:13:18.761Z,123.75
2018-06-09T05:14:18.724Z,123.75
2018-06-09T05:15:18.698Z,118.13
2018-06-09T05:16:18.682Z,112.50
2018-06-09T05:17:18.669Z,106.88
2018-06-09T05:18:18.702Z,95.63
2018-06-09T05:19:18.637Z,95.63
2018-06-09T05:20:18.637Z,95.63
2018-06-09T05:21:18.609Z,95.63
2018-06-09T10:31:38.016Z,1091.25
2018-06-09T10:32:37.927Z,1080.00
2018-06-09T10:33:37.922Z,1085.63
2018-06-09T10:34:37.922Z,1068.75
2018-06-09T10:35:37.892Z,1040.63
2018-06-09T10:36:37.880Z,1035.00
2018-06-09T10:37:37.871Z,1046.25
2018-06-09T10:38:37.875Z,1051.88
2018-06-09T10:39:37.843Z,1063.13
2018-06-09T10:40:37.844Z,1068.75
2018-06-09T10:41:37.820Z,1063.13
2018-06-09T10:42:37.809Z,1063.13
2018-06-09T10:43:37.803Z,1063.13
2018-06-09T10:44:37.802Z,1080.00
2018-06-09T10:45:37.803Z,1108.13
2018-06-09T10:46:37.771Z,1147.50
2018-06-09T10:47:37.755Z,1175.63
2018-06-09T10:48:37.752Z,1198.13
2018-06-09T10:49:37.735Z,1226.25
2018-06-09T10:50:37.721Z,1243.13
2018-06-09T10:51:37.727Z,1248.75
2018-06-09T10:52:37.707Z,1243.13
2018-06-09T10:53:37.698Z,1260.00
2018-06-09T10:54:37.683Z,1271.25
2018-06-09T10:55:37.673Z,1254.38
2018-06-09T10:56:37.695Z,1209.38
2018-06-09T10:57:37.662Z,1186.88
2018-06-09T10:58:37.644Z,1164.38
2018-06-09T10:59:37.639Z,1164.38
2018-06-09T11:00:37.628Z,1215.00
2018-06-09T11:01:37.616Z,1237.50
2018-06-09T11:02:37.617Z,1231.88
2018-06-09T11:03:37.598Z,1226.25
2018-06-09T11:04:37.585Z,1220.63
2018-06-09T11:05:37.575Z,1237.50
2018-06-09T11:06:37.567Z,1237.50
2018-06-09T11:07:37.567Z,1316.25
2018-06-09T11:08:37.547Z,1327.50
2018-06-09T11:09:37.537Z,1305.00
2018-06-09T11:10:37.531Z,1288.13
2018-06-09T11:11:37.519Z,1265.63
2018-06-09T11:12:37.525Z,1243.13
2018-06-09T11:13:37.498Z,1265.63
2018-06-09T11:14:37.494Z,1276.88
2018-06-09T11:15:37.478Z,1282.50
2018-06-09T11:16:37.477Z,1366.88
2018-06-09T11:17:37.476Z,1434.38
2018-06-09T11:18:37.448Z,1372.50
2018-06-09T11:19:37.442Z,1265.63
2018-06-09T11:20:37.433Z,1141.88
2018-06-09T11:21:37.423Z,1057.50
2018-06-09T11:22:37.414Z,1051.88
2018-06-09T11:23:37.418Z,1096.88
2018-06-09T11:24:37.405Z,1153.13
2018-06-09T11:25:37.385Z,1243.13
2018-06-09T11:26:37.376Z,1282.50
2018-06-09T11:27:37.386Z,1293.75
2018-06-09T11:28:37.355Z,1237.50
2018-06-09T11:29:37.363Z,1192.50
2018-06-09T11:30:37.337Z,1136.25
2018-06-09T11:31:37.328Z,1113.75
2018-06-09T11:32:37.320Z,1158.75
2018-06-09T11:33:37.327Z,1141.88
2018-06-09T11:34:37.300Z,1080.00
2018-06-09T11:35:37.294Z,1125.00
2018-06-09T11:36:37.281Z,1170.00
2018-06-09T11:37:37.265Z,1215.00
2018-06-09T11:38:37.260Z,1220.63
2018-06-09T11:39:37.264Z,1226.25
2018-06-09T11:40:37.247Z,1215.00
2018-06-09T11:41:37.236Z,1209.38
2018-06-09T11:42:37.225Z,1254.38
2018-06-09T11:43:37.219Z,1271.25
2018-06-09T11:44:37.216Z,1288.13
2018-06-09T11:45:37.195Z,1288.13
2018-06-09T11:46:37.185Z,1276.88
2018-06-09T11:47:37.181Z,1299.38
2018-06-09T11:48:37.174Z,1276.88
2018-06-09T11:49:37.166Z,1293.75
2018-06-09T11:50:37.179Z,1282.50
2018-06-09T11:51:37.144Z,1293.75
2018-06-09T11:52:37.128Z,1327.50
2018-06-09T11:53:37.123Z,1316.25
2018-06-09T11:54:37.125Z,1305.00
2018-06-09T11:55:37.110Z,1321.88
2018-06-09T11:56:37.097Z,1366.88
2018-06-09T11:57:37.086Z,1389.38
2018-06-09T11:58:37.146Z,1366.88
2018-06-09T11:59:37.078Z,1383.75
2018-06-09T12:00:37.057Z,1366.88
2018-06-09T12:01:37.048Z,1316.25
2018-06-09T12:02:37.035Z,1406.25
2018-06-09T12:03:37.030Z,1355.63
2018-06-09T12:04:37.038Z,1423.13
2018-06-09T12:05:37.019Z,1473.75
2018-06-09T12:06:37.003Z,1479.38
2018-06-09T12:07:36.988Z,1468.13
2018-06-09T12:08:36.985Z,1468.13
2018-06-09T12:09:36.997Z,1513.13
2018-06-09T12:10:36.963Z,1530.00
2018-06-09T12:11:36.955Z,1524.38
2018-06-09T12:12:36.946Z,1518.75
2018-06-09T12:13:36.937Z,1507.50
2018-06-09T12:14:36.932Z,1496.25
2018-06-09T12:15:36.936Z,1507.50
2018-06-09T12:16:36.911Z,1552.50
2018-06-09T12:17:36.901Z,1569.38
2018-06-09T12:18:36.891Z,1580.63
2018-06-09T12:19:36.884Z,1591.88
2018-06-09T12:20:36.875Z,1603.13
2018-06-09T12:21:36.876Z,1603.13
2018-06-09T12:22:36.870Z,1614.38
2018-06-09T12:23:36.848Z,1625.63
2018-06-09T12:24:36.846Z,1631.25
2018-06-09T12:25:36.830Z,1636.88
2018-06-09T12:26:36.838Z,1631.25
2018-06-09T12:27:36.819Z,1636.88
2018-06-09T12:28:36.807Z,1642.50
2018-06-09T12:29:36.796Z,1642.50
2018-06-09T12:30:36.786Z,1625.63
2018-06-09T12:31:36.797Z,1546.88
2018-06-09T12:32:36.793Z,1496.25
2018-06-09T12:33:36.757Z,1378.13
2018-06-09T12:34:36.751Z,1333.13
2018-06-09T12:35:36.745Z,1310.63
2018-06-09T12:36:36.751Z,1440.00
2018-06-09T12:37:36.728Z,1518.75
2018-06-09T12:38:36.717Z,1485.00
2018-06-09T12:39:36.710Z,1456.88
2018-06-09T12:40:36.704Z,1428.75
2018-06-09T12:41:36.713Z,1333.13
2018-06-09T12:42:36.684Z,1333.13
2018-06-09T12:43:36.685Z,1485.00
2018-06-09T12:44:36.681Z,1575.00
2018-06-09T12:45:36.654Z,1591.88
2018-06-09T12:46:36.661Z,1518.75
2018-06-09T12:47:36.647Z,1501.88
2018-06-09T12:48:36.678Z,1530.00
2018-06-09T12:49:36.625Z,1541.25
2018-06-09T12:50:36.617Z,1580.63
2018-06-09T12:51:36.676Z,1636.88
2018-06-09T12:52:36.599Z,1648.13
2018-06-09T12:53:36.588Z,1665.00
2018-06-09T12:54:36.581Z,1636.88
2018-06-09T12:55:36.574Z,1794.38
2018-06-09T12:56:36.583Z,1856.25
2018-06-09T12:57:36.559Z,1923.75
2018-06-09T12:58:36.547Z,1957.50
2018-06-09T12:59:36.540Z,1929.38
2018-06-09T13:00:36.540Z,1901.25
2018-06-09T13:01:36.521Z,1906.88
2018-06-09T13:02:36.525Z,1906.88
2018-06-09T13:03:36.504Z,1878.75
2018-06-09T13:04:36.499Z,1850.63
2018-06-09T13:05:36.489Z,1850.63
2018-06-09T13:06:36.480Z,1957.50
2018-06-09T13:07:36.469Z,1985.63
2018-06-09T13:08:36.479Z,2025.00
2018-06-09T13:09:36.455Z,2041.88
2018-06-09T13:10:36.447Z,2070.00
2018-06-09T13:11:36.439Z,2081.25
2018-06-09T13:12:36.430Z,2036.25
2018-06-09T13:13:36.430Z,2053.13
2018-06-09T13:14:36.415Z,2013.75
2018-06-09T13:15:36.407Z,1895.63
2018-06-09T13:16:36.404Z,1760.63
2018-06-09T13:17:36.391Z,1676.25
2018-06-09T13:18:36.398Z,1625.63
2018-06-09T13:19:36.433Z,1636.88
2018-06-09T13:20:36.371Z,1777.50
2018-06-09T13:21:36.361Z,2345.63
2018-06-09T13:22:36.361Z,2958.75
2018-06-09T13:23:36.353Z,3110.63
2018-06-09T13:24:36.354Z,3504.38
2018-06-09T13:25:36.331Z,3279.38
2018-06-09T13:26:36.322Z,3172.50
2018-06-09T13:27:36.317Z,3138.75
2018-06-09T13:28:36.314Z,3251.25
2018-06-09T13:29:36.335Z,3183.75
2018-06-09T13:30:36.312Z,3386.25
2018-06-09T13:31:36.286Z,3571.88
2018-06-09T13:32:36.279Z,3560.63
2018-06-09T13:33:36.271Z,3583.13
2018-06-09T13:34:36.265Z,3408.75
2018-06-09T13:35:36.277Z,3481.88
2018-06-09T13:36:36.253Z,3628.13
2018-06-09T13:37:36.241Z,4061.25
2018-06-09T13:38:36.233Z,4151.25
2018-06-09T13:39:36.234Z,4308.75
2018-06-09T13:40:36.228Z,4123.13
2018-06-09T13:41:36.229Z,3853.13
2018-06-09T13:42:36.213Z,4033.13
2018-06-09T13:43:36.201Z,4365.00
2018-06-09T13:44:36.194Z,4156.88
2018-06-09T13:45:36.223Z,4134.38
2018-06-09T13:46:36.178Z,4381.88
2018-06-09T13:47:36.179Z,4488.75
2018-06-09T13:48:36.167Z,4916.25
2018-06-09T13:49:36.158Z,4713.75
2018-06-09T13:50:36.158Z,4404.38
2018-06-09T13:51:36.157Z,4449.38
2018-06-09T13:52:36.147Z,4753.13
2018-06-09T13:53:36.133Z,5467.50
2018-06-09T13:54:36.175Z,4888.13
2018-06-09T13:55:36.121Z,4365.00
2018-06-09T13:56:36.152Z,4173.75
2018-06-09T13:57:36.110Z,4545.00
2018-06-09T13:58:36.105Z,4955.63
2018-06-09T13:59:36.097Z,4764.38
2018-06-09T14:00:36.090Z,4713.75
2018-06-09T14:01:36.131Z,4258.13
2018-06-09T14:02:36.079Z,3903.75
2018-06-09T14:03:36.072Z,4213.13
2018-06-09T14:04:36.072Z,4303.13
2018-06-09T14:05:36.065Z,4168.13
2018-06-09T14:06:36.053Z,4410.00
2018-06-09T14:07:36.072Z,4590.00
2018-06-09T14:08:36.046Z,4415.63
2018-06-09T14:09:36.039Z,4381.88
2018-06-09T14:10:36.039Z,4460.63
2018-06-09T14:11:36.028Z,4336.88
2018-06-09T14:12:36.024Z,4010.63
2018-06-09T14:13:36.032Z,3875.63
2018-06-09T14:14:36.014Z,4398.75
2018-06-09T14:15:36.008Z,4668.75
2018-06-09T14:16:36.010Z,4449.38
2018-06-09T14:17:35.999Z,4314.38
2018-06-09T14:18:36.004Z,4511.25
2018-06-09T14:19:35.993Z,4775.63
2018-06-09T14:20:35.985Z,4950.00
2018-06-09T14:21:35.986Z,4815.00
2018-06-09T14:22:35.980Z,4483.13
2018-06-09T14:23:35.989Z,4663.13
2018-06-09T14:24:35.967Z,4657.50
2018-06-09T14:25:35.961Z,4438.13
2018-06-09T14:26:35.954Z,4381.88
2018-06-09T14:27:35.951Z,3988.13
2018-06-09T14:28:35.962Z,3290.63
2018-06-09T14:29:35.943Z,3723.75
2018-06-09T14:30:35.939Z,4078.13
2018-06-09T14:31:35.933Z,4421.25
2018-06-09T14:32:35.939Z,4055.63
2018-06-09T14:33:35.938Z,3718.13
2018-06-09T14:34:35.933Z,3532.50
2018-06-09T14:35:35.921Z,3470.63
2018-06-09T14:36:35.917Z,3465.00
2018-06-09T14:37:35.912Z,3256.88
2018-06-09T14:38:35.916Z,3504.38
2018-06-09T14:39:35.903Z,3420.00
2018-06-09T14:40:35.900Z,3442.50
2018-06-09T14:41:35.894Z,3453.75
2018-06-09T14:42:35.889Z,3245.63
2018-06-09T14:43:35.920Z,3076.88
2018-06-09T14:44:35.885Z,3082.50
2018-06-09T14:45:35.880Z,3313.13
2018-06-09T14:46:35.874Z,3549.38
2018-06-09T14:47:35.876Z,3431.25
2018-06-09T14:48:35.868Z,3566.25
2018-06-09T14:49:35.879Z,4010.63
2018-06-09T14:50:35.866Z,3971.25
2018-06-09T14:51:35.857Z,3718.13
2018-06-09T14:52:35.852Z,3228.75
2018-06-09T14:53:35.851Z,3088.13
2018-06-09T14:54:35.846Z,2874.38
2018-06-09T14:55:35.867Z,2970.00
2018-06-09T14:56:35.840Z,2964.38
2018-06-09T14:57:35.834Z,2936.25
2018-06-09T14:58:35.838Z,2975.63
2018-06-09T14:59:35.830Z,2908.13
2018-06-09T15:00:35.836Z,2801.25
2018-06-09T15:01:35.830Z,2480.63
2018-06-09T15:02:35.818Z,2407.50
2018-06-09T15:03:35.821Z,2480.63
2018-06-09T15:04:35.811Z,2165.63
2018-06-09T15:05:35.827Z,2075.63
2018-06-09T15:06:35.810Z,2131.88
2018-06-09T15:07:35.803Z,2255.63
2018-06-09T15:08:35.796Z,2413.13
2018-06-09T15:09:35.812Z,2261.25
2018-06-09T15:10:35.799Z,2047.50
2018-06-09T15:11:35.787Z,1895.63
2018-06-09T15:12:35.790Z,1828.13
2018-06-09T15:13:35.775Z,1850.63
2018-06-09T15:14:35.774Z,1822.50
2018-06-09T15:15:35.786Z,1850.63
2018-06-09T15:16:35.769Z,1895.63
2018-06-09T15:17:35.761Z,1940.63
2018-06-09T15:18:35.748Z,1912.50
2018-06-09T15:19:35.816Z,1912.50
2018-06-09T15:20:35.776Z,1929.38
2018-06-09T15:21:35.738Z,1951.88
2018-06-09T15:22:35.791Z,1968.75
2018-06-09T15:23:35.729Z,2058.75
2018-06-09T15:24:35.727Z,2120.63
2018-06-09T15:25:35.720Z,2053.13
2018-06-09T15:26:35.734Z,1906.88
2018-06-09T15:27:35.711Z,1726.88
2018-06-09T15:28:35.715Z,1710.00
2018-06-09T15:29:35.699Z,1704.38
2018-06-09T15:30:35.697Z,1704.38
2018-06-09T15:31:35.688Z,1681.88
2018-06-09T15:32:35.695Z,1676.25
2018-06-09T15:33:35.677Z,1743.75
2018-06-09T15:34:35.666Z,1760.63
2018-06-09T15:35:35.662Z,2019.38
2018-06-09T15:36:35.664Z,2261.25
2018-06-09T15:37:35.668Z,2536.88
2018-06-09T15:38:35.665Z,2919.38
2018-06-09T15:39:35.644Z,2913.75
2018-06-09T15:40:35.641Z,3037.50
2018-06-09T15:41:35.631Z,2936.25
2018-06-09T15:42:35.908Z,2925.00
2018-06-09T15:43:35.627Z,2896.88
2018-06-09T15:44:35.620Z,2857.50
2018-06-09T15:45:35.617Z,2728.13
2018-06-09T15:46:35.619Z,2677.50
2018-06-09T15:47:35.607Z,2728.13
2018-06-09T15:48:35.624Z,2520.00
2018-06-09T15:49:35.599Z,2430.00
2018-06-09T15:50:35.604Z,2480.63
2018-06-09T15:51:35.591Z,2508.75
2018-06-09T15:52:35.590Z,2666.25
2018-06-09T15:53:35.642Z,2638.13
2018-06-09T15:54:35.608Z,2430.00
2018-06-09T15:55:35.580Z,2520.00
2018-06-09T15:56:35.573Z,2520.00
2018-06-09T15:57:35.568Z,2435.63
2018-06-09T15:58:35.573Z,2385.00
2018-06-09T15:59:35.580Z,2362.50
2018-06-09T16:00:35.561Z,2413.13
2018-06-09T16:01:35.565Z,2469.38
2018-06-09T16:02:35.554Z,2430.00
2018-06-09T16:03:35.553Z,2441.25
2018-06-09T16:04:35.562Z,2475.00
2018-06-09T16:05:35.549Z,2469.38
2018-06-09T16:06:35.551Z,2542.50
2018-06-09T16:07:35.550Z,2514.38
2018-06-09T16:08:35.544Z,2480.63
2018-06-09T16:09:35.554Z,2548.13
2018-06-09T16:10:35.533Z,2559.38
2018-06-09T16:11:35.540Z,2615.63
2018-06-09T16:12:35.534Z,2655.00
2018-06-09T16:13:35.533Z,2621.25
2018-06-09T16:14:35.528Z,2548.13
2018-06-09T16:15:35.562Z,2497.50
2018-06-09T16:16:35.525Z,2486.25
2018-06-09T16:17:35.524Z,2553.75
2018-06-09T16:18:35.521Z,2536.88
2018-06-09T16:19:35.524Z,2542.50
2018-06-09T16:20:35.515Z,2503.13
2018-06-09T16:21:35.524Z,2469.38
2018-06-09T16:22:35.510Z,2306.25
2018-06-09T16:23:35.513Z,2047.50
2018-06-09T16:24:35.510Z,1687.50
2018-06-09T16:25:35.507Z,1321.88
2018-06-09T16:26:35.516Z,1704.38
2018-06-09T16:27:35.500Z,1614.38
2018-06-09T16:28:35.500Z,1507.50
2018-06-09T16:29:35.494Z,1490.63
2018-06-09T16:30:35.494Z,1288.13
2018-06-09T16:31:35.488Z,1248.75
2018-06-09T16:32:35.541Z,1231.88
2018-06-09T16:33:35.480Z,1440.00
2018-06-09T16:34:35.484Z,1558.13
2018-06-09T16:35:35.475Z,1254.38
2018-06-09T16:36:35.480Z,1288.13
2018-06-09T16:37:35.480Z,1378.13
2018-06-09T16:38:35.498Z,1248.75
2018-06-09T16:39:35.463Z,984.38
2018-06-09T16:40:35.451Z,877.50
2018-06-09T16:41:35.459Z,860.63
2018-06-09T16:42:35.436Z,765.00
2018-06-09T16:43:35.432Z,697.50
2018-06-09T16:44:35.429Z,641.25
2018-06-09T16:45:35.456Z,551.25
2018-06-09T16:46:35.429Z,495.00
2018-06-09T16:47:35.456Z,455.63
2018-06-09T16:48:35.403Z,433.13
2018-06-09T16:49:35.396Z,427.50
2018-06-09T16:50:35.395Z,427.50
2018-06-09T16:51:35.402Z,421.88
2018-06-09T16:52:35.377Z,410.63
2018-06-09T16:53:35.367Z,405.00
2018-06-09T16:54:35.381Z,393.75
2018-06-09T16:55:35.360Z,382.50
2018-06-09T16:56:35.352Z,371.25
2018-06-09T16:57:35.354Z,365.63
2018-06-09T16:58:35.335Z,360.00
2018-06-09T16:59:35.329Z,348.75
2018-06-09T17:00:35.318Z,348.75
2018-06-09T17:01:35.315Z,354.38
2018-06-09T17:02:35.588Z,360.00
2018-06-09T17:03:35.294Z,365.63
2018-06-09T17:04:35.288Z,365.63
2018-06-09T17:05:35.277Z,360.00
2018-06-09T17:06:35.274Z,354.38
2018-06-09T17:07:35.261Z,360.00
2018-06-09T17:08:35.269Z,348.75
2018-06-09T17:09:35.241Z,348.75
2018-06-09T17:10:35.237Z,343.13
2018-06-09T17:11:35.226Z,343.13
2018-06-09T17:12:35.218Z,326.25
2018-06-09T17:13:35.211Z,326.25
2018-06-09T17:14:35.208Z,320.63
2018-06-09T17:15:35.192Z,315.00
2018-06-09T17:16:35.181Z,315.00
2018-06-09T17:17:35.173Z,320.63
2018-06-09T17:18:35.187Z,315.00
2018-06-09T17:19:35.155Z,315.00
2018-06-09T17:20:35.145Z,315.00
2018-06-09T17:21:35.151Z,315.00
2018-06-09T17:22:35.138Z,315.00
2018-06-09T17:23:35.121Z,315.00
2018-06-09T17:24:35.120Z,303.75
2018-06-09T17:25:35.101Z,298.13
2018-06-09T17:26:35.092Z,286.88
2018-06-09T17:27:35.077Z,281.25
2018-06-09T17:28:35.072Z,275.63
2018-06-09T17:29:35.077Z,264.38
2018-06-09T17:30:35.052Z,258.75
2018-06-09T17:31:35.045Z,253.13
2018-06-09T17:32:35.033Z,247.50
2018-06-09T17:33:35.037Z,236.25
2018-06-09T17:34:35.016Z,236.25
2018-06-09T17:35:35.004Z,230.63
2018-06-09T17:36:35.000Z,225.00
2018-06-09T17:37:34.989Z,219.38
2018-06-09T17:38:34.994Z,213.75
2018-06-09T17:39:34.966Z,208.13
2018-06-09T17:40:34.956Z,202.50
2018-06-09T17:41:34.945Z,202.50
2018-06-09T17:42:34.937Z,196.88